Lexington, KY

10:27 PM EDT on September 15, 2014 (GMT -0400)
Mount Sterling-Montgomery County | Change Station
CLOSE
Current Station
Airport
Location: Mount Sterling,
Elevation: 1020 ft
Nearby Weather Stations

Elev 1020 ft 38.06 °N, 83.98 °W | Updated 12 minutes ago

Rain
Rain
61 °F
Feels Like 61 °F
N
5
Wind Variable Wind from SW

Today
High -- | Low -- °F
--% Chance of Precip.
Yesterday
High -- | Low -- °F
Precip. -- in
7:19 AM 7:45 PM
Waning Gibbous, 50% visible
Pressure 30.13 in
Visibility 10.0 miles
Clouds Overcast 10000 ft
Dew Point 59 °F
Humidity 94%
Rainfall 0.24 in
Snow Depth Not available.
UV 0 out of 12
Pollen 7.00 out of 12
PM2.5 Good
Flu Activity Not available.
METAR KIOB 160215Z AUTO 23004KT 10SM -RA OVC100 16/15 A3013 RMK AO2

More Conditions Fewer Conditions

Pressure 30.13 in
Visibility 10.0 miles
Clouds Overcast 10000 ft
Dew Point 59 °F
Humidity 94%
Rainfall 0.24 in
Snow Depth Not available.
UV 0 out of 12
Pollen 7.00 out of 12
PM2.5 Good
Flu Activity Not available.
METAR KIOB 160215Z AUTO 23004KT 10SM -RA OVC100 16/15 A3013 RMK AO2

More Conditions Fewer Conditions

10-Day Weather Forecast

Almanac

Astronomy

Sep. 15, 2014 Rise Set
Actual Time 7:19 AM EDT 7:45 PM EDT
Civil Twilight 6:53 AM EDT 8:12 PM EDT
Nautical Twilight 6:22 AM EDT 8:43 PM EDT
Astronomical Twilight 5:50 AM EDT 9:14 PM EDT
Moon No Moon Rise 2:13 PM EDT (9/15)
Length of Visible Light 13h 18m
Length of Day
12h 26m
Tomorrow will be 2m 25s shorter.
Waning Gibbous, 50% of the Moon is Illuminated
Today
Waning Gibbous
Sep 24
New
Oct 1
First Quarter
Oct 8
Full
Oct 15
Last Quarter

Today's Extremes

State Highs State Lows

Community

WunderPhotos

Upload Photos

1,753,666 photos uploaded!

Nearby

Air Quality

  Air Quality AQ Index Pollutant
Yesterday Good
OZONE
Yesterday Good
PM2.5
Current Good
PM2.5
Monday Good
OZONE
Tuesday Good
OZONE

Snow Depth

Station Depth Elevation
No new snow has been reported.

Earthquake Activity

City Distance Mag. Time & Date
No recent earthquake activity has been reported nearby.
Minimum magnitude displayed is 2.5.

Coastal Water Temperatures

Place Temperature
No Stations Reporting

Nearby Weather Stations